createdAt,value
2022-07-29T00:02:18.704Z,3.40
2022-07-29T00:07:19.387Z,3.30
2022-07-29T00:12:25.419Z,3.50
2022-07-29T00:17:21.721Z,3.70
2022-07-29T00:22:21.416Z,3.50
2022-07-29T00:27:22.145Z,3.50
2022-07-29T00:32:22.892Z,3.70
2022-07-29T00:37:23.626Z,3.70
2022-07-29T00:42:24.372Z,3.60
2022-07-29T00:47:25.057Z,3.60
2022-07-29T00:52:25.805Z,3.80
2022-07-29T00:57:26.545Z,3.90
2022-07-29T01:02:27.345Z,3.90
2022-07-29T01:07:28.065Z,3.90
2022-07-29T01:12:28.795Z,3.60
2022-07-29T01:17:29.511Z,3.60
2022-07-29T01:22:30.222Z,3.40
2022-07-29T01:27:30.962Z,3.80
2022-07-29T01:32:31.735Z,3.90
2022-07-29T01:37:32.397Z,3.70
2022-07-29T01:42:33.150Z,3.70
2022-07-29T01:47:33.850Z,3.80
2022-07-29T01:52:34.560Z,3.50
2022-07-29T01:57:35.306Z,3.60
2022-07-29T02:02:36.026Z,3.40
2022-07-29T02:07:36.750Z,3.50
2022-07-29T02:12:37.489Z,3.50
2022-07-29T02:17:38.772Z,3.50
2022-07-29T02:22:39.005Z,3.50
2022-07-29T02:27:46.696Z,3.30
2022-07-29T02:32:40.331Z,3.20
2022-07-29T02:37:40.835Z,3.30
2022-07-29T02:42:41.517Z,3.20
2022-07-29T02:47:42.323Z,3.20
2022-07-29T02:52:43.039Z,3.30
2022-07-29T02:57:53.798Z,3.10
2022-07-29T03:02:45.288Z,3.30
2022-07-29T03:07:44.966Z,3.00
2022-07-29T03:12:45.609Z,3.50
2022-07-29T03:17:46.273Z,3.30
2022-07-29T03:22:46.941Z,3.00
2022-07-29T03:27:47.620Z,2.80
2022-07-29T03:32:48.271Z,3.10
2022-07-29T03:37:49.175Z,3.00
2022-07-29T03:42:49.794Z,3.00
2022-07-29T03:47:52.870Z,3.10
2022-07-29T03:52:51.392Z,2.90
2022-07-29T03:57:52.058Z,3.20
2022-07-29T04:02:52.752Z,3.00
2022-07-29T04:07:53.475Z,3.20
2022-07-29T04:12:54.270Z,3.00
2022-07-29T04:17:54.955Z,3.20
2022-07-29T04:22:55.685Z,3.30
2022-07-29T04:27:56.315Z,3.00
2022-07-29T04:32:56.980Z,3.00
2022-07-29T04:37:57.663Z,3.10
2022-07-29T04:42:58.326Z,3.20
2022-07-29T04:47:59.184Z,3.50
2022-07-29T04:52:59.931Z,3.30
2022-07-29T04:58:00.670Z,3.00
2022-07-29T05:03:01.275Z,3.20
2022-07-29T05:08:02.103Z,3.10
2022-07-29T05:13:02.796Z,3.30
2022-07-29T05:18:03.437Z,3.30
2022-07-29T05:23:04.109Z,3.60
2022-07-29T05:28:04.774Z,3.30
2022-07-29T05:33:05.484Z,3.40
2022-07-29T05:38:06.295Z,3.30
2022-07-29T05:43:06.668Z,3.30
2022-07-29T05:48:07.348Z,3.30
2022-07-29T05:53:19.353Z,3.30
2022-07-29T05:58:09.478Z,3.40
2022-07-29T06:03:09.115Z,3.70
2022-07-29T06:08:09.785Z,3.60
2022-07-29T06:13:10.439Z,3.20
2022-07-29T06:18:11.214Z,3.20
2022-07-29T06:23:11.954Z,3.60
2022-07-29T06:28:12.620Z,3.40
2022-07-29T06:33:13.295Z,3.40
2022-07-29T06:38:31.094Z,3.30
2022-07-29T06:43:15.518Z,3.50
2022-07-29T06:48:15.204Z,3.10
2022-07-29T06:53:15.953Z,3.30
2022-07-29T06:58:16.664Z,2.80
2022-07-29T07:03:17.378Z,3.60
2022-07-29T07:08:18.137Z,3.20
2022-07-29T07:13:18.824Z,3.30
2022-07-29T07:18:19.449Z,3.10
2022-07-29T07:23:20.131Z,3.80
2022-07-29T07:28:24.856Z,2.80
2022-07-29T07:33:21.370Z,2.80
2022-07-29T07:38:22.296Z,3.10
2022-07-29T07:43:23.091Z,3.10
2022-07-29T07:48:23.884Z,2.90
2022-07-29T07:53:24.660Z,2.70
2022-07-29T07:58:25.372Z,2.60
2022-07-29T08:03:25.986Z,2.20
2022-07-29T08:08:26.676Z,2.10
2022-07-29T08:13:27.369Z,2.30
2022-07-29T08:18:28.045Z,2.60
2022-07-29T08:23:45.571Z,2.20
2022-07-29T08:34:19.155Z,2.20
2022-07-29T08:45:10.712Z,2.10
2022-07-29T08:50:10.506Z,2.30
2022-07-29T08:55:26.983Z,2.10
2022-07-29T09:00:20.742Z,2.10
2022-07-29T09:05:12.387Z,2.90
2022-07-29T09:10:13.102Z,1.90
2022-07-29T09:15:14.765Z,2.00
2022-07-29T09:20:14.460Z,2.20
2022-07-29T09:25:15.157Z,2.00
2022-07-29T09:30:15.901Z,2.00
2022-07-29T09:35:18.389Z,2.00
2022-07-29T09:40:18.069Z,2.10
2022-07-29T09:45:17.805Z,1.90
2022-07-29T09:50:18.557Z,1.80
2022-07-29T09:55:19.793Z,2.00
2022-07-29T10:00:20.250Z,1.80
2022-07-29T10:05:20.925Z,2.00
2022-07-29T10:10:21.603Z,2.10
2022-07-29T10:15:22.285Z,1.90
2022-07-29T10:20:22.962Z,2.40
2022-07-29T10:25:23.660Z,1.90
2022-07-29T10:30:24.785Z,1.70
2022-07-29T10:35:24.973Z,1.60
2022-07-29T10:40:25.649Z,1.70
2022-07-29T10:45:26.195Z,1.90
2022-07-29T10:50:26.944Z,1.90
2022-07-29T10:55:27.599Z,1.80
2022-07-29T11:00:28.273Z,1.80
2022-07-29T11:05:39.844Z,1.70
2022-07-29T11:10:31.410Z,1.80
2022-07-29T11:15:31.636Z,2.00
2022-07-29T11:20:30.882Z,1.90
2022-07-29T11:25:42.888Z,1.80
2022-07-29T11:30:33.305Z,1.80
2022-07-29T11:40:34.544Z,1.80
2022-07-29T11:45:44.922Z,1.90
2022-07-29T11:50:35.685Z,2.00
2022-07-29T11:55:36.349Z,2.00
2022-07-29T12:00:36.887Z,2.10
2022-07-29T12:05:37.333Z,1.90
2022-07-29T12:10:37.524Z,2.30
2022-07-29T12:15:46.187Z,2.10
2022-07-29T12:20:39.939Z,2.10
2022-07-29T12:25:39.544Z,2.20
2022-07-29T12:30:40.398Z,2.30
2022-07-29T12:35:41.338Z,2.20
2022-07-29T12:46:31.185Z,2.30
2022-07-29T12:51:32.061Z,2.70
2022-07-29T12:56:42.787Z,2.50
2022-07-29T13:01:34.487Z,2.30
2022-07-29T13:06:34.508Z,2.60
2022-07-29T13:11:34.858Z,2.40
2022-07-29T13:16:36.236Z,2.50
2022-07-29T13:21:36.328Z,2.40
2022-07-29T13:26:37.586Z,2.30
2022-07-29T13:31:37.583Z,2.80
2022-07-29T13:36:41.585Z,2.30
2022-07-29T13:41:39.846Z,2.30
2022-07-29T13:46:40.450Z,2.40
2022-07-29T13:51:42.266Z,2.70
2022-07-29T13:56:41.419Z,2.80
2022-07-29T14:01:46.518Z,2.80
2022-07-29T14:06:42.042Z,2.80
2022-07-29T14:11:43.283Z,2.90
2022-07-29T14:16:52.061Z,2.60
2022-07-29T14:21:45.655Z,3.10
2022-07-29T14:26:46.300Z,2.60
2022-07-29T14:31:45.739Z,2.80
2022-07-29T14:36:53.361Z,2.50
2022-07-29T14:41:47.029Z,2.50
2022-07-29T14:46:47.726Z,2.40
2022-07-29T14:51:48.599Z,2.60
2022-07-29T14:56:51.292Z,2.70
2022-07-29T15:01:50.098Z,2.60
2022-07-29T15:06:50.824Z,2.50
2022-07-29T15:11:51.497Z,2.50
2022-07-29T15:16:52.910Z,2.60
2022-07-29T15:21:53.978Z,2.50
2022-07-29T15:26:53.179Z,2.80
2022-07-29T15:31:53.911Z,2.60
2022-07-29T15:36:54.617Z,2.60
2022-07-29T15:41:55.404Z,2.60
2022-07-29T15:46:56.421Z,2.30
2022-07-29T15:51:59.886Z,2.10
2022-07-29T15:56:57.448Z,2.30
2022-07-29T16:01:57.994Z,2.30
2022-07-29T16:06:59.198Z,2.20
2022-07-29T16:11:59.290Z,2.10
2022-07-29T16:17:00.454Z,2.60
2022-07-29T16:22:00.433Z,2.10
2022-07-29T16:27:01.587Z,2.10
2022-07-29T16:32:02.100Z,2.10
2022-07-29T16:37:03.149Z,2.10
2022-07-29T16:42:05.492Z,2.20
2022-07-29T16:47:04.281Z,2.20
2022-07-29T16:52:05.001Z,2.30
2022-07-29T16:57:05.671Z,2.40
2022-07-29T17:02:06.334Z,2.40
2022-07-29T17:07:07.065Z,2.30
2022-07-29T17:12:07.718Z,2.70
2022-07-29T17:17:12.258Z,2.10
2022-07-29T17:22:15.514Z,2.30
2022-07-29T17:27:10.475Z,2.00
2022-07-29T17:32:10.213Z,2.20
2022-07-29T17:37:11.014Z,2.20
2022-07-29T17:42:11.799Z,1.90
2022-07-29T17:47:15.708Z,2.40
2022-07-29T17:52:13.557Z,2.20
2022-07-29T17:57:14.369Z,2.30
2022-07-29T18:02:15.426Z,1.90
2022-07-29T18:07:16.001Z,2.10
2022-07-29T18:12:16.289Z,2.20
2022-07-29T18:17:17.095Z,2.20
2022-07-29T18:22:17.864Z,2.40
2022-07-29T18:27:18.555Z,2.60
2022-07-29T18:32:19.158Z,2.30
2022-07-29T18:38:02.168Z,2.70
2022-07-29T18:42:21.476Z,2.40
2022-07-29T18:47:21.292Z,2.30
2022-07-29T18:52:21.987Z,2.30
2022-07-29T18:57:56.289Z,2.50
2022-07-29T19:02:24.718Z,2.50
2022-07-29T19:07:24.136Z,2.60
2022-07-29T19:12:24.818Z,2.00
2022-07-29T19:17:26.654Z,2.50
2022-07-29T19:22:26.342Z,2.30
2022-07-29T19:27:27.013Z,2.30
2022-07-29T19:32:27.789Z,2.20
2022-07-29T19:37:28.450Z,2.60
2022-07-29T19:42:29.148Z,2.30
2022-07-29T19:47:29.870Z,2.40
2022-07-29T19:52:30.646Z,2.30
2022-07-29T19:57:40.508Z,2.40
2022-07-29T20:02:33.198Z,2.30
2022-07-29T20:07:32.514Z,2.30
2022-07-29T20:12:35.382Z,2.30
2022-07-29T20:17:34.385Z,2.30
2022-07-29T20:22:35.936Z,2.30
2022-07-29T20:27:35.799Z,2.20
2022-07-29T20:32:36.677Z,2.40
2022-07-29T20:37:56.193Z,2.30
2022-07-29T20:42:39.318Z,2.50
2022-07-29T20:47:38.681Z,2.20
2022-07-29T20:52:41.358Z,2.30
2022-07-29T20:57:40.291Z,2.30
2022-07-29T21:02:41.309Z,2.40
2022-07-29T21:07:41.757Z,2.40
2022-07-29T21:12:42.576Z,2.20
2022-07-29T21:17:43.402Z,1.90
2022-07-29T21:22:44.233Z,2.50
2022-07-29T21:27:44.972Z,2.30
2022-07-29T21:32:45.752Z,2.40
2022-07-29T21:37:46.506Z,2.20
2022-07-29T21:42:47.273Z,2.20
2022-07-29T21:47:47.977Z,2.30
2022-07-29T21:52:48.754Z,2.30
2022-07-29T21:57:49.600Z,2.20
2022-07-29T22:02:50.398Z,2.30
2022-07-29T22:07:55.490Z,1.90
2022-07-29T22:12:52.708Z,2.40
2022-07-29T22:17:59.521Z,2.30
2022-07-29T22:22:53.272Z,2.90
2022-07-29T22:27:53.978Z,2.50
2022-07-29T22:32:54.679Z,2.20
2022-07-29T22:37:55.412Z,1.70
2022-07-29T22:42:56.134Z,2.20
2022-07-29T22:47:59.150Z,1.90
2022-07-29T22:52:57.738Z,2.10
2022-07-29T22:57:58.416Z,2.00
2022-07-29T23:02:59.243Z,2.10
2022-07-29T23:08:00.448Z,1.80
2022-07-29T23:13:00.808Z,2.00
2022-07-29T23:18:01.541Z,2.30
2022-07-29T23:23:02.285Z,2.00
2022-07-29T23:28:02.984Z,2.10
2022-07-29T23:33:03.698Z,1.90
2022-07-29T23:38:04.406Z,2.70
2022-07-29T23:43:06.031Z,2.70
2022-07-29T23:48:06.094Z,2.30
2022-07-29T23:53:06.834Z,2.20
2022-07-29T23:58:07.564Z,2.10
